sensor_id;sensor_type;location;lat;lon;timestamp;pressure;altitude;pressure_sealevel;temperature;humidity
23261;BME280;11799;47.740;-3.390;2023-05-10T00:00:36;101787.00;;;11.41;100.00
23261;BME280;11799;47.740;-3.390;2023-05-10T00:03:02;101785.41;;;11.38;100.00
23261;BME280;11799;47.740;-3.390;2023-05-10T00:05:31;101786.56;;;11.34;100.00
23261;BME280;11799;47.740;-3.390;2023-05-10T00:07:56;101790.91;;;11.35;100.00
23261;BME280;11799;47.740;-3.390;2023-05-10T00:10:22;101786.47;;;11.36;100.00
23261;BME280;11799;47.740;-3.390;2023-05-10T00:12:48;101777.88;;;11.32;100.00
23261;BME280;11799;47.740;-3.390;2023-05-10T00:15:13;101781.47;;;11.31;100.00
23261;BME280;11799;47.740;-3.390;2023-05-10T00:17:39;101773.34;;;11.34;100.00
23261;BME280;11799;47.740;-3.390;2023-05-10T00:20:05;101784.22;;;11.30;100.00
23261;BME280;11799;47.740;-3.390;2023-05-10T00:22:31;101765.81;;;11.28;100.00
23261;BME280;11799;47.740;-3.390;2023-05-10T00:24:57;101770.13;;;11.29;100.00
23261;BME280;11799;47.740;-3.390;2023-05-10T00:27:23;101760.72;;;11.25;100.00
23261;BME280;11799;47.740;-3.390;2023-05-10T00:29:49;101775.72;;;11.24;100.00
23261;BME280;11799;47.740;-3.390;2023-05-10T00:32:14;101760.81;;;11.23;100.00
23261;BME280;11799;47.740;-3.390;2023-05-10T00:34:40;101769.69;;;11.22;100.00
23261;BME280;11799;47.740;-3.390;2023-05-10T00:37:06;101762.59;;;11.23;100.00
23261;BME280;11799;47.740;-3.390;2023-05-10T00:39:32;101759.13;;;11.22;100.00
23261;BME280;11799;47.740;-3.390;2023-05-10T00:41:57;101765.44;;;11.20;100.00
23261;BME280;11799;47.740;-3.390;2023-05-10T00:44:24;101766.31;;;11.20;100.00
23261;BME280;11799;47.740;-3.390;2023-05-10T00:46:50;101768.09;;;11.20;100.00
23261;BME280;11799;47.740;-3.390;2023-05-10T00:49:16;101768.19;;;11.18;100.00
23261;BME280;11799;47.740;-3.390;2023-05-10T00:51:43;101761.22;;;11.17;100.00
23261;BME280;11799;47.740;-3.390;2023-05-10T00:54:14;101766.59;;;11.16;100.00
23261;BME280;11799;47.740;-3.390;2023-05-10T00:56:40;101764.25;;;11.11;100.00
23261;BME280;11799;47.740;-3.390;2023-05-10T00:59:08;101767.66;;;11.13;100.00
23261;BME280;11799;47.740;-3.390;2023-05-10T01:01:35;101768.59;;;11.12;100.00
23261;BME280;11799;47.740;-3.390;2023-05-10T01:04:01;101765.00;;;11.13;100.00
23261;BME280;11799;47.740;-3.390;2023-05-10T01:06:27;101768.59;;;11.12;100.00
23261;BME280;11799;47.740;-3.390;2023-05-10T01:08:53;101769.53;;;11.11;100.00
23261;BME280;11799;47.740;-3.390;2023-05-10T01:11:18;101771.44;;;11.09;100.00
23261;BME280;11799;47.740;-3.390;2023-05-10T01:13:49;101762.56;;;11.10;100.00
23261;BME280;11799;47.740;-3.390;2023-05-10T01:16:16;101767.84;;;11.10;100.00
23261;BME280;11799;47.740;-3.390;2023-05-10T01:18:42;101759.06;;;11.10;100.00
23261;BME280;11799;47.740;-3.390;2023-05-10T01:24:12;101756.41;;;11.10;100.00
23261;BME280;11799;47.740;-3.390;2023-05-10T01:30:08;101758.97;;;11.11;100.00
23261;BME280;11799;47.740;-3.390;2023-05-10T01:35:41;101757.47;;;11.07;100.00
23261;BME280;11799;47.740;-3.390;2023-05-10T01:38:24;101753.78;;;11.10;100.00
23261;BME280;11799;47.740;-3.390;2023-05-10T01:46:18;101748.50;;;11.10;100.00
23261;BME280;11799;47.740;-3.390;2023-05-10T01:48:52;101759.91;;;11.10;100.00
23261;BME280;11799;47.740;-3.390;2023-05-10T01:51:29;101757.16;;;11.12;100.00
23261;BME280;11799;47.740;-3.390;2023-05-10T01:54:01;101754.53;;;11.12;100.00
23261;BME280;11799;47.740;-3.390;2023-05-10T01:56:30;101741.22;;;11.13;100.00
23261;BME280;11799;47.740;-3.390;2023-05-10T01:58:57;101735.81;;;11.15;100.00
23261;BME280;11799;47.740;-3.390;2023-05-10T02:01:26;101742.81;;;11.16;100.00
23261;BME280;11799;47.740;-3.390;2023-05-10T02:03:52;101735.63;;;11.18;100.00
23261;BME280;11799;47.740;-3.390;2023-05-10T02:06:20;101736.56;;;11.17;100.00
23261;BME280;11799;47.740;-3.390;2023-05-10T02:08:47;101743.66;;;11.16;100.00
23261;BME280;11799;47.740;-3.390;2023-05-10T02:11:14;101744.50;;;11.17;100.00
23261;BME280;11799;47.740;-3.390;2023-05-10T02:13:41;101740.06;;;11.17;100.00
23261;BME280;11799;47.740;-3.390;2023-05-10T02:16:09;101738.28;;;11.18;100.00
23261;BME280;11799;47.740;-3.390;2023-05-10T02:18:35;101740.91;;;11.18;100.00
23261;BME280;11799;47.740;-3.390;2023-05-10T02:21:02;101736.56;;;11.17;100.00
23261;BME280;11799;47.740;-3.390;2023-05-10T02:23:29;101745.25;;;11.19;100.00
23261;BME280;11799;47.740;-3.390;2023-05-10T02:25:56;101736.56;;;11.17;100.00
23261;BME280;11799;47.740;-3.390;2023-05-10T02:28:23;101735.63;;;11.18;100.00
23261;BME280;11799;47.740;-3.390;2023-05-10T02:30:51;101734.69;;;11.19;100.00
23261;BME280;11799;47.740;-3.390;2023-05-10T02:33:18;101731.19;;;11.18;100.00
23261;BME280;11799;47.740;-3.390;2023-05-10T02:35:46;101728.53;;;11.18;100.00
23261;BME280;11799;47.740;-3.390;2023-05-10T02:38:13;101727.88;;;11.15;100.00
23261;BME280;11799;47.740;-3.390;2023-05-10T02:40:41;101722.59;;;11.15;100.00
23261;BME280;11799;47.740;-3.390;2023-05-10T02:43:12;101725.06;;;11.18;100.00
23261;BME280;11799;47.740;-3.390;2023-05-10T02:45:38;101725.06;;;11.18;100.00
23261;BME280;11799;47.740;-3.390;2023-05-10T02:48:05;101727.59;;;11.19;100.00
23261;BME280;11799;47.740;-3.390;2023-05-10T02:50:32;101729.28;;;11.20;100.00
23261;BME280;11799;47.740;-3.390;2023-05-10T02:53:05;101730.69;;;11.26;100.00
23261;BME280;11799;47.740;-3.390;2023-05-10T02:55:36;101730.47;;;11.29;100.00
23261;BME280;11799;47.740;-3.390;2023-05-10T02:58:03;101733.66;;;11.34;100.00
23261;BME280;11799;47.740;-3.390;2023-05-10T03:00:29;101729.97;;;11.37;100.00
23261;BME280;11799;47.740;-3.390;2023-05-10T03:02:55;101729.78;;;11.40;100.00
23261;BME280;11799;47.740;-3.390;2023-05-10T03:05:21;101732.00;;;11.46;100.00
23261;BME280;11799;47.740;-3.390;2023-05-10T03:07:47;101736.13;;;11.50;100.00
23261;BME280;11799;47.740;-3.390;2023-05-10T03:10:13;101735.84;;;11.54;100.00
23261;BME280;11799;47.740;-3.390;2023-05-10T03:12:51;101740.03;;;11.57;100.00
23261;BME280;11799;47.740;-3.390;2023-05-10T03:20:43;101735.19;;;11.64;100.00
23261;BME280;11799;47.740;-3.390;2023-05-10T03:25:44;101724.59;;;11.64;100.00
23261;BME280;11799;47.740;-3.390;2023-05-10T03:28:12;101728.94;;;11.65;100.00
23261;BME280;11799;47.740;-3.390;2023-05-10T03:30:38;101723.75;;;11.63;100.00
23261;BME280;11799;47.740;-3.390;2023-05-10T03:33:05;101726.28;;;11.65;100.00
23261;BME280;11799;47.740;-3.390;2023-05-10T03:35:33;101733.38;;;11.64;100.00
23261;BME280;11799;47.740;-3.390;2023-05-10T03:37:58;101733.59;;;11.61;100.00
23261;BME280;11799;47.740;-3.390;2023-05-10T03:40:25;101740.47;;;11.64;100.00
23261;BME280;11799;47.740;-3.390;2023-05-10T03:42:51;101732.63;;;11.62;100.00
23261;BME280;11799;47.740;-3.390;2023-05-10T03:45:17;101737.81;;;11.64;100.00
23261;BME280;11799;47.740;-3.390;2023-05-10T03:47:42;101731.78;;;11.62;100.00
23261;BME280;11799;47.740;-3.390;2023-05-10T03:50:09;101731.06;;;11.59;100.00
23261;BME280;11799;47.740;-3.390;2023-05-10T03:52:35;101737.28;;;11.58;100.00
23261;BME280;11799;47.740;-3.390;2023-05-10T03:55:01;101733.69;;;11.59;100.00
23261;BME280;11799;47.740;-3.390;2023-05-10T03:57:29;101731.06;;;11.59;100.00
23261;BME280;11799;47.740;-3.390;2023-05-10T03:59:54;101730.31;;;11.57;100.00
23261;BME280;11799;47.740;-3.390;2023-05-10T04:02:20;101738.13;;;11.59;100.00
23261;BME280;11799;47.740;-3.390;2023-05-10T04:04:45;101737.28;;;11.58;100.00
23261;BME280;11799;47.740;-3.390;2023-05-10T04:07:11;101731.16;;;11.58;100.00
23261;BME280;11799;47.740;-3.390;2023-05-10T04:09:36;101731.25;;;11.56;100.00
23261;BME280;11799;47.740;-3.390;2023-05-10T04:12:02;101729.56;;;11.55;100.00
23261;BME280;11799;47.740;-3.390;2023-05-10T04:14:28;101738.47;;;11.54;100.00
23261;BME280;11799;47.740;-3.390;2023-05-10T04:16:53;101728.09;;;11.51;100.00
23261;BME280;11799;47.740;-3.390;2023-05-10T04:19:19;101731.81;;;11.49;100.00
23261;BME280;11799;47.740;-3.390;2023-05-10T04:21:44;101724.06;;;11.46;100.00
23261;BME280;11799;47.740;-3.390;2023-05-10T04:24:10;101732.09;;;11.44;100.00
23261;BME280;11799;47.740;-3.390;2023-05-10T04:26:35;101732.22;;;11.43;100.00
23261;BME280;11799;47.740;-3.390;2023-05-10T04:29:01;101729.78;;;11.40;100.00
23261;BME280;11799;47.740;-3.390;2023-05-10T04:31:27;101729.97;;;11.37;100.00
23261;BME280;11799;47.740;-3.390;2023-05-10T04:33:53;101722.13;;;11.35;100.00
23261;BME280;11799;47.740;-3.390;2023-05-10T04:36:18;101724.88;;;11.34;100.00
23261;BME280;11799;47.740;-3.390;2023-05-10T04:38:44;101732.91;;;11.32;100.00
23261;BME280;11799;47.740;-3.390;2023-05-10T04:41:10;101728.47;;;11.33;100.00
23261;BME280;11799;47.740;-3.390;2023-05-10T04:43:37;101725.84;;;11.33;100.00
23261;BME280;11799;47.740;-3.390;2023-05-10T04:46:03;101721.59;;;11.30;100.00
23261;BME280;11799;47.740;-3.390;2023-05-10T04:48:29;101734.50;;;11.35;100.00
23261;BME280;11799;47.740;-3.390;2023-05-10T04:50:54;101734.63;;;11.33;100.00
23261;BME280;11799;47.740;-3.390;2023-05-10T04:53:20;101736.31;;;11.34;100.00
23261;BME280;11799;47.740;-3.390;2023-05-10T04:55:46;101737.34;;;11.32;100.00
23261;BME280;11799;47.740;-3.390;2023-05-10T04:58:12;101734.41;;;11.36;100.00
23261;BME280;11799;47.740;-3.390;2023-05-10T05:00:38;101748.28;;;11.40;100.00
23261;BME280;11799;47.740;-3.390;2023-05-10T05:03:03;101739.41;;;11.41;100.00
23261;BME280;11799;47.740;-3.390;2023-05-10T05:05:29;101746.28;;;11.43;100.00
23261;BME280;11799;47.740;-3.390;2023-05-10T05:07:54;101743.53;;;11.45;100.00
23261;BME280;11799;47.740;-3.390;2023-05-10T05:10:20;101748.53;;;11.49;100.00
23261;BME280;11799;47.740;-3.390;2023-05-10T05:12:46;101744.94;;;11.50;100.00
23261;BME280;11799;47.740;-3.390;2023-05-10T05:15:11;101735.09;;;11.52;100.00
23261;BME280;11799;47.740;-3.390;2023-05-10T05:17:37;101738.47;;;11.54;100.00
23261;BME280;11799;47.740;-3.390;2023-05-10T05:20:02;101739.19;;;11.56;100.00
23261;BME280;11799;47.740;-3.390;2023-05-10T05:22:28;101744.28;;;11.59;100.00
23261;BME280;11799;47.740;-3.390;2023-05-10T05:24:55;101743.22;;;11.62;100.00
23261;BME280;11799;47.740;-3.390;2023-05-10T05:27:21;101750.97;;;11.65;100.00
23261;BME280;11799;47.740;-3.390;2023-05-10T05:29:50;101754.13;;;11.70;100.00
23261;BME280;11799;47.740;-3.390;2023-05-10T05:32:16;101762.63;;;11.75;100.00
23261;BME280;11799;47.740;-3.390;2023-05-10T05:34:44;101752.59;;;11.80;100.00
23261;BME280;11799;47.740;-3.390;2023-05-10T05:37:14;101756.72;;;11.84;100.00
23261;BME280;11799;47.740;-3.390;2023-05-10T05:39:39;101760.13;;;11.86;100.00
23261;BME280;11799;47.740;-3.390;2023-05-10T05:42:05;101762.47;;;11.91;100.00
23261;BME280;11799;47.740;-3.390;2023-05-10T05:44:30;101761.19;;;11.97;100.00
23261;BME280;11799;47.740;-3.390;2023-05-10T05:46:56;101765.53;;;11.98;100.00
23261;BME280;11799;47.740;-3.390;2023-05-10T05:49:22;101760.13;;;11.99;100.00
23261;BME280;11799;47.740;-3.390;2023-05-10T05:51:47;101762.25;;;12.07;100.00
23261;BME280;11799;47.740;-3.390;2023-05-10T05:54:14;101760.00;;;12.13;100.00
23261;BME280;11799;47.740;-3.390;2023-05-10T05:56:40;101761.47;;;12.17;100.00
23261;BME280;11799;47.740;-3.390;2023-05-10T05:59:05;101770.91;;;12.21;100.00
23261;BME280;11799;47.740;-3.390;2023-05-10T06:01:31;101761.91;;;12.24;100.00
23261;BME280;11799;47.740;-3.390;2023-05-10T06:03:57;101765.94;;;12.30;100.00
23261;BME280;11799;47.740;-3.390;2023-05-10T06:06:22;101771.75;;;12.35;100.00
23261;BME280;11799;47.740;-3.390;2023-05-10T06:08:48;101760.31;;;12.34;100.00
23261;BME280;11799;47.740;-3.390;2023-05-10T06:11:13;101771.84;;;12.46;100.00
23261;BME280;11799;47.740;-3.390;2023-05-10T06:13:39;101777.03;;;12.47;100.00
23261;BME280;11799;47.740;-3.390;2023-05-10T06:16:04;101772.78;;;12.57;100.00
23261;BME280;11799;47.740;-3.390;2023-05-10T06:18:30;101782.75;;;12.67;100.00
23261;BME280;11799;47.740;-3.390;2023-05-10T06:20:56;101774.94;;;12.76;100.00
23261;BME280;11799;47.740;-3.390;2023-05-10T06:23:22;101778.97;;;12.82;100.00
23261;BME280;11799;47.740;-3.390;2023-05-10T06:25:48;101779.88;;;12.94;100.00
23261;BME280;11799;47.740;-3.390;2023-05-10T06:28:13;101782.09;;;13.00;100.00
23261;BME280;11799;47.740;-3.390;2023-05-10T06:30:39;101782.16;;;13.11;100.00
23261;BME280;11799;47.740;-3.390;2023-05-10T06:33:05;101785.03;;;13.20;100.00
23261;BME280;11799;47.740;-3.390;2023-05-10T06:35:30;101786.00;;;13.31;100.00
23261;BME280;11799;47.740;-3.390;2023-05-10T06:37:58;101781.72;;;13.41;100.00
23261;BME280;11799;47.740;-3.390;2023-05-10T06:40:24;101785.50;;;13.49;100.00
23261;BME280;11799;47.740;-3.390;2023-05-10T06:42:49;101782.16;;;13.59;100.00
23261;BME280;11799;47.740;-3.390;2023-05-10T06:45:16;101794.16;;;13.75;100.00
23261;BME280;11799;47.740;-3.390;2023-05-10T06:47:42;101787.31;;;13.84;100.00
23261;BME280;11799;47.740;-3.390;2023-05-10T06:50:09;101772.84;;;13.99;100.00
23261;BME280;11799;47.740;-3.390;2023-05-10T06:52:34;101778.91;;;14.12;100.00
23261;BME280;11799;47.740;-3.390;2023-05-10T06:55:01;101777.56;;;14.18;100.00
23261;BME280;11799;47.740;-3.390;2023-05-10T06:57:26;101772.91;;;14.44;100.00
23261;BME280;11799;47.740;-3.390;2023-05-10T06:59:52;101772.50;;;14.71;100.00
23261;BME280;11799;47.740;-3.390;2023-05-10T07:02:18;101776.97;;;14.93;100.00
23261;BME280;11799;47.740;-3.390;2023-05-10T07:04:43;101780.81;;;15.32;100.00
23261;BME280;11799;47.740;-3.390;2023-05-10T07:07:09;101777.72;;;15.59;100.00
23261;BME280;11799;47.740;-3.390;2023-05-10T07:09:35;101781.34;;;15.78;100.00
23261;BME280;11799;47.740;-3.390;2023-05-10T07:12:00;101770.75;;;15.88;100.00
23261;BME280;11799;47.740;-3.390;2023-05-10T07:14:27;101777.31;;;16.05;100.00
23261;BME280;11799;47.740;-3.390;2023-05-10T07:16:53;101776.03;;;16.30;100.00
23261;BME280;11799;47.740;-3.390;2023-05-10T07:19:18;101783.94;;;16.41;100.00
23261;BME280;11799;47.740;-3.390;2023-05-10T07:21:45;101786.66;;;16.50;100.00
23261;BME280;11799;47.740;-3.390;2023-05-10T07:24:10;101784.16;;;16.59;100.00
23261;BME280;11799;47.740;-3.390;2023-05-10T07:26:36;101782.53;;;16.77;100.00
23261;BME280;11799;47.740;-3.390;2023-05-10T07:29:02;101780.75;;;16.87;100.00
23261;BME280;11799;47.740;-3.390;2023-05-10T07:31:28;101784.44;;;17.05;100.00
23261;BME280;11799;47.740;-3.390;2023-05-10T07:33:53;101788.78;;;17.06;100.00
23261;BME280;11799;47.740;-3.390;2023-05-10T07:36:19;101787.50;;;17.01;100.00
23261;BME280;11799;47.740;-3.390;2023-05-10T07:38:45;101786.94;;;16.97;100.00
23261;BME280;11799;47.740;-3.390;2023-05-10T07:41:11;101790.44;;;16.88;100.00
23261;BME280;11799;47.740;-3.390;2023-05-10T07:43:37;101781.41;;;16.70;100.00
23261;BME280;11799;47.740;-3.390;2023-05-10T07:46:02;101778.19;;;16.66;100.00
23261;BME280;11799;47.740;-3.390;2023-05-10T07:48:28;101781.28;;;16.81;100.00
23261;BME280;11799;47.740;-3.390;2023-05-10T07:50:53;101779.72;;;16.78;100.00
23261;BME280;11799;47.740;-3.390;2023-05-10T07:53:19;101778.19;;;16.76;100.00
23261;BME280;11799;47.740;-3.390;2023-05-10T07:55:50;101775.38;;;16.77;100.00
23261;BME280;11799;47.740;-3.390;2023-05-10T07:58:16;101781.34;;;17.00;100.00
23261;BME280;11799;47.740;-3.390;2023-05-10T08:00:41;101780.78;;;17.35;100.00
23261;BME280;11799;47.740;-3.390;2023-05-10T08:03:07;101780.22;;;17.41;100.00
23261;BME280;11799;47.740;-3.390;2023-05-10T08:05:32;101774.47;;;17.36;100.00
23261;BME280;11799;47.740;-3.390;2023-05-10T08:07:58;101776.88;;;17.59;100.00
23261;BME280;11799;47.740;-3.390;2023-05-10T08:10:24;101779.13;;;17.73;100.00
23261;BME280;11799;47.740;-3.390;2023-05-10T08:12:51;101781.63;;;17.94;100.00
23261;BME280;11799;47.740;-3.390;2023-05-10T08:15:16;101779.47;;;18.07;100.00
23261;BME280;11799;47.740;-3.390;2023-05-10T08:17:42;101775.81;;;18.08;100.00
23261;BME280;11799;47.740;-3.390;2023-05-10T08:20:08;101780.72;;;18.12;100.00
23261;BME280;11799;47.740;-3.390;2023-05-10T08:22:34;101781.31;;;18.06;100.00
23261;BME280;11799;47.740;-3.390;2023-05-10T08:25:00;101772.19;;;17.99;100.00
23261;BME280;11799;47.740;-3.390;2023-05-10T08:27:25;101780.91;;;17.92;100.00
23261;BME280;11799;47.740;-3.390;2023-05-10T08:29:51;101778.41;;;17.90;100.00
23261;BME280;11799;47.740;-3.390;2023-05-10T08:32:17;101767.16;;;17.87;100.00
23261;BME280;11799;47.740;-3.390;2023-05-10T08:34:42;101779.63;;;17.96;100.00
23261;BME280;11799;47.740;-3.390;2023-05-10T08:37:08;101784.44;;;17.92;100.00
23261;BME280;11799;47.740;-3.390;2023-05-10T08:39:35;101783.84;;;17.98;100.00
23261;BME280;11799;47.740;-3.390;2023-05-10T08:42:02;101785.28;;;17.93;100.00
23261;BME280;11799;47.740;-3.390;2023-05-10T08:44:31;101787.41;;;17.89;100.00
23261;BME280;11799;47.740;-3.390;2023-05-10T08:46:59;101794.88;;;17.76;100.00
23261;BME280;11799;47.740;-3.390;2023-05-10T08:49:26;101790.34;;;17.57;100.00
23261;BME280;11799;47.740;-3.390;2023-05-10T08:51:55;101793.31;;;17.44;100.00
23261;BME280;11799;47.740;-3.390;2023-05-10T08:54:22;101794.16;;;17.45;100.00
23261;BME280;11799;47.740;-3.390;2023-05-10T08:56:48;101790.50;;;17.46;100.00
23261;BME280;11799;47.740;-3.390;2023-05-10T08:59:13;101787.25;;;17.52;100.00
23261;BME280;11799;47.740;-3.390;2023-05-10T09:01:41;101784.88;;;17.59;100.00
23261;BME280;11799;47.740;-3.390;2023-05-10T09:04:07;101780.38;;;17.49;100.00
23261;BME280;11799;47.740;-3.390;2023-05-10T09:06:33;101793.16;;;17.36;100.00
23261;BME280;11799;47.740;-3.390;2023-05-10T09:08:59;101804.81;;;17.16;100.00
23261;BME280;11799;47.740;-3.390;2023-05-10T09:11:25;101798.91;;;17.03;100.00
23261;BME280;11799;47.740;-3.390;2023-05-10T09:13:54;101801.69;;;16.92;100.00
23261;BME280;11799;47.740;-3.390;2023-05-10T09:16:20;101804.72;;;16.77;100.00
23261;BME280;11799;47.740;-3.390;2023-05-10T09:18:46;101797.94;;;16.64;100.00
23261;BME280;11799;47.740;-3.390;2023-05-10T09:21:13;101801.47;;;16.64;100.00
23261;BME280;11799;47.740;-3.390;2023-05-10T09:23:42;101804.72;;;16.68;100.00
23261;BME280;11799;47.740;-3.390;2023-05-10T09:26:08;101795.03;;;16.76;100.00
23261;BME280;11799;47.740;-3.390;2023-05-10T09:28:53;101800.97;;;16.90;100.00
23261;BME280;11799;47.740;-3.390;2023-05-10T09:31:19;101803.25;;;17.04;100.00
23261;BME280;11799;47.740;-3.390;2023-05-10T09:33:46;101798.22;;;17.10;100.00
23261;BME280;11799;47.740;-3.390;2023-05-10T09:36:12;101798.50;;;17.17;100.00
23261;BME280;11799;47.740;-3.390;2023-05-10T09:38:49;101806.38;;;17.28;100.00
23261;BME280;11799;47.740;-3.390;2023-05-10T09:41:20;101796.81;;;17.35;100.00
23261;BME280;11799;47.740;-3.390;2023-05-10T09:43:46;101802.56;;;17.40;100.00
23261;BME280;11799;47.740;-3.390;2023-05-10T09:46:13;101807.22;;;17.38;100.00
23261;BME280;11799;47.740;-3.390;2023-05-10T09:48:45;101804.28;;;17.32;100.00
23261;BME280;11799;47.740;-3.390;2023-05-10T09:51:22;101797.41;;;17.29;100.00
23261;BME280;11799;47.740;-3.390;2023-05-10T09:53:48;101807.94;;;17.31;100.00
23261;BME280;11799;47.740;-3.390;2023-05-10T09:56:35;101810.03;;;17.37;100.00
23261;BME280;11799;47.740;-3.390;2023-05-10T09:59:06;101809.88;;;17.38;100.00
23261;BME280;11799;47.740;-3.390;2023-05-10T10:01:33;101813.97;;;17.33;100.00
23261;BME280;11799;47.740;-3.390;2023-05-10T10:04:02;101810.88;;;17.37;100.00
23261;BME280;11799;47.740;-3.390;2023-05-10T10:06:29;101816.47;;;17.34;100.00
23261;BME280;11799;47.740;-3.390;2023-05-10T10:08:55;101808.19;;;17.37;100.00
23261;BME280;11799;47.740;-3.390;2023-05-10T10:11:21;101805.13;;;17.32;100.00
23261;BME280;11799;47.740;-3.390;2023-05-10T10:13:48;101811.16;;;17.34;100.00
23261;BME280;11799;47.740;-3.390;2023-05-10T10:16:14;101823.53;;;17.26;100.00
23261;BME280;11799;47.740;-3.390;2023-05-10T10:18:41;101807.91;;;17.11;100.00
23261;BME280;11799;47.740;-3.390;2023-05-10T10:21:07;101817.53;;;16.93;100.00
23261;BME280;11799;47.740;-3.390;2023-05-10T10:23:36;101817.34;;;16.66;100.00
23261;BME280;11799;47.740;-3.390;2023-05-10T10:26:03;101813.38;;;16.39;100.00
23261;BME280;11799;47.740;-3.390;2023-05-10T10:31:17;101814.41;;;15.97;100.00
23261;BME280;11799;47.740;-3.390;2023-05-10T10:34:05;101811.69;;;15.87;100.00
23261;BME280;11799;47.740;-3.390;2023-05-10T10:36:39;101806.88;;;15.81;100.00
23261;BME280;11799;47.740;-3.390;2023-05-10T10:39:09;101805.09;;;15.70;100.00
23261;BME280;11799;47.740;-3.390;2023-05-10T10:41:37;101802.31;;;15.72;100.00
23261;BME280;11799;47.740;-3.390;2023-05-10T10:47:03;101800.59;;;16.03;100.00
23261;BME280;11799;47.740;-3.390;2023-05-10T10:55:09;101798.09;;;16.41;100.00
23261;BME280;11799;47.740;-3.390;2023-05-10T10:57:52;101791.84;;;16.52;100.00
23261;BME280;11799;47.740;-3.390;2023-05-10T11:02:48;101789.56;;;16.68;100.00
23261;BME280;11799;47.740;-3.390;2023-05-10T11:08:14;101788.31;;;16.72;100.00
23261;BME280;11799;47.740;-3.390;2023-05-10T11:10:50;101794.03;;;16.68;100.00
23261;BME280;11799;47.740;-3.390;2023-05-10T11:13:27;101810.88;;;16.68;100.00
23261;BME280;11799;47.740;-3.390;2023-05-10T11:15:53;101797.56;;;16.78;100.00
23261;BME280;11799;47.740;-3.390;2023-05-10T11:18:30;101792.53;;;16.75;100.00
23261;BME280;11799;47.740;-3.390;2023-05-10T11:21:00;101795.03;;;16.76;100.00
23261;BME280;11799;47.740;-3.390;2023-05-10T11:23:33;101791.25;;;16.79;100.00
23261;BME280;11799;47.740;-3.390;2023-05-10T11:26:13;101796.06;;;16.95;100.00
23261;BME280;11799;47.740;-3.390;2023-05-10T11:28:46;101790.59;;;16.96;100.00
23261;BME280;11799;47.740;-3.390;2023-05-10T11:31:17;101788.78;;;16.97;100.00
23261;BME280;11799;47.740;-3.390;2023-05-10T11:36:32;101780.94;;;17.05;100.00
23261;BME280;11799;47.740;-3.390;2023-05-10T11:38:58;101784.19;;;17.18;100.00
23261;BME280;11799;47.740;-3.390;2023-05-10T11:41:24;101791.78;;;17.32;100.00
23261;BME280;11799;47.740;-3.390;2023-05-10T11:43:52;101782.63;;;17.44;100.00
23261;BME280;11799;47.740;-3.390;2023-05-10T11:46:24;101786.56;;;17.60;100.00
23261;BME280;11799;47.740;-3.390;2023-05-10T11:49:01;101779.84;;;17.75;100.00
23261;BME280;11799;47.740;-3.390;2023-05-10T11:51:29;101777.44;;;17.72;100.00
23261;BME280;11799;47.740;-3.390;2023-05-10T11:53:58;101774.63;;;17.83;100.00
23261;BME280;11799;47.740;-3.390;2023-05-10T11:56:23;101774.97;;;18.07;100.00
23261;BME280;11799;47.740;-3.390;2023-05-10T11:58:56;101776.88;;;18.34;100.00
23261;BME280;11799;47.740;-3.390;2023-05-10T12:01:24;101778.59;;;18.53;100.00
23261;BME280;11799;47.740;-3.390;2023-05-10T12:03:51;101784.19;;;18.69;100.00
23261;BME280;11799;47.740;-3.390;2023-05-10T12:06:21;101783.56;;;19.03;100.00
23261;BME280;11799;47.740;-3.390;2023-05-10T12:08:48;101778.72;;;18.89;100.00
23261;BME280;11799;47.740;-3.390;2023-05-10T12:11:15;101777.66;;;18.82;100.00
23261;BME280;11799;47.740;-3.390;2023-05-10T12:13:43;101775.97;;;18.80;100.00
23261;BME280;11799;47.740;-3.390;2023-05-10T12:16:13;101772.47;;;19.16;100.00
23261;BME280;11799;47.740;-3.390;2023-05-10T12:18:40;101767.13;;;19.33;100.00
23261;BME280;11799;47.740;-3.390;2023-05-10T12:21:06;101764.59;;;19.50;100.00
23261;BME280;11799;47.740;-3.390;2023-05-10T12:23:31;101768.34;;;19.39;100.00
23261;BME280;11799;47.740;-3.390;2023-05-10T12:26:02;101772.94;;;19.29;100.00
23261;BME280;11799;47.740;-3.390;2023-05-10T12:28:30;101775.16;;;19.33;100.00
23261;BME280;11799;47.740;-3.390;2023-05-10T12:30:57;101779.59;;;19.42;100.00
23261;BME280;11799;47.740;-3.390;2023-05-10T12:33:23;101776.84;;;19.17;100.00
23261;BME280;11799;47.740;-3.390;2023-05-10T12:35:50;101774.47;;;18.96;100.00
23261;BME280;11799;47.740;-3.390;2023-05-10T12:40:52;101787.25;;;18.47;100.00
23261;BME280;11799;47.740;-3.390;2023-05-10T12:43:17;101790.25;;;18.25;100.00
23261;BME280;11799;47.740;-3.390;2023-05-10T12:45:43;101787.94;;;18.02;100.00
23261;BME280;11799;47.740;-3.390;2023-05-10T12:48:13;101780.91;;;18.01;100.00
23261;BME280;11799;47.740;-3.390;2023-05-10T12:50:38;101779.63;;;18.05;100.00
23261;BME280;11799;47.740;-3.390;2023-05-10T12:53:04;101786.38;;;18.00;100.00
23261;BME280;11799;47.740;-3.390;2023-05-10T12:55:30;101779.75;;;18.04;100.00
23261;BME280;11799;47.740;-3.390;2023-05-10T12:57:56;101779.75;;;18.04;100.00
23261;BME280;11799;47.740;-3.390;2023-05-10T13:00:21;101784.13;;;18.05;100.00
23261;BME280;11799;47.740;-3.390;2023-05-10T13:02:47;101780.72;;;18.12;100.00
23261;BME280;11799;47.740;-3.390;2023-05-10T13:05:12;101782.41;;;18.13;100.00
23261;BME280;11799;47.740;-3.390;2023-05-10T13:07:38;101778.91;;;18.03;100.00
23261;BME280;11799;47.740;-3.390;2023-05-10T13:10:05;101784.16;;;17.95;100.00
23261;BME280;11799;47.740;-3.390;2023-05-10T13:12:32;101785.72;;;17.88;100.00
23261;BME280;11799;47.740;-3.390;2023-05-10T13:14:57;101787.41;;;17.89;100.00